»·PEaware :: N5954W KTRM-KLGB

N5954W :: KTRM-KLGB

FLIGHT INFORMATION

Flight Status: Arrived
Operator: Privately registered:
United States
More flights under this callsign
Pilot: Joshua M. (19482)
Aircraft: BEECH AIRCRAFT A90-E90 KING AIR
(BE9L)
More flights by this aircraft type
Origin: KTRM Desert Resorts Regl
United States
Destination: KLGB Long Beach
United States
More flights between these airports :: More routes between these airports
Route: +V388 DEWAY HDF KAYOH7
File this flight plan on PilotEdge
Remarks: Outdated NAV Default XPlane
Altitude:
(Current/Filed)
12,000ft
Speed:
(Current/Filed)
240kts
Departed: 21-Jul-18 02:35 PM
Arrived: 21-Jul-18 03:28 PM
Distance/Time
Traveled:
100nm/0:53
Distance/Time
To Go:
Arrived

Flight Plot

Page will automatically refresh every two minutes.

Flight plan parsing failed; only flown route is shown


Map Options




Map Legend


Flown Route
Filed Route
Departure Airport
Arrival Airport
Navaid (VOR, NDB)
Fix

Horizontal Profiles

Position Reports

Time Latitude Longitude Heading Altitude Ground
Speed
21-Jul-18 14:18 33.637613 -116.158593 268 -111ft 0kts
21-Jul-18 14:19 33.637613 -116.158592 268 -111ft 0kts
21-Jul-18 14:20 33.637613 -116.158592 268 -111ft 0kts
21-Jul-18 14:21 33.637599 -116.158362 117 -111ft 2kts
21-Jul-18 14:22 33.637572 -116.158297 117 -111ft 0kts
21-Jul-18 14:23 33.638458 -116.157723 1 -111ft 18kts
21-Jul-18 14:24 33.639259 -116.157571 179 -111ft 0kts
21-Jul-18 14:25 33.639259 -116.157571 179 -111ft 0kts
21-Jul-18 14:26 33.639258 -116.157571 177 -111ft 0kts
21-Jul-18 14:27 33.639258 -116.157571 177 -111ft 0kts
21-Jul-18 14:28 33.639258 -116.157571 177 -111ft 0kts
21-Jul-18 14:29 33.639258 -116.157571 177 -111ft 0kts
21-Jul-18 14:30 33.639258 -116.157571 177 -111ft 0kts
21-Jul-18 14:31 33.639258 -116.157571 177 -111ft 0kts
21-Jul-18 14:32 33.639258 -116.157571 177 -111ft 0kts
21-Jul-18 14:33 33.639258 -116.157571 177 -111ft 0kts
21-Jul-18 14:34 33.639031 -116.157303 88 -111ft 0kts
21-Jul-18 14:35 33.638964 -116.156616 122 -111ft 11kts
21-Jul-18 14:36 33.629317 -116.156422 179 -109ft 120kts
21-Jul-18 14:37 33.608557 -116.168941 273 1494ft 102kts
21-Jul-18 14:38 33.629458 -116.191732 324 2765ft 140kts
21-Jul-18 14:39 33.655046 -116.215601 321 3904ft 154kts
21-Jul-18 14:40 33.680101 -116.240161 320 5045ft 158kts
21-Jul-18 14:41 33.700229 -116.260200 320 5901ft 161kts
21-Jul-18 14:42 33.722158 -116.282053 320 6773ft 164kts
21-Jul-18 14:43 33.746664 -116.306494 320 7682ft 167kts
21-Jul-18 14:44 33.774802 -116.334580 320 8652ft 170kts
21-Jul-18 14:45 33.805512 -116.365264 319 9634ft 173kts
21-Jul-18 14:46 33.834201 -116.393957 319 10486ft 175kts
21-Jul-18 14:47 33.862450 -116.422235 319 11269ft 176kts
21-Jul-18 14:48 33.876970 -116.459165 284 11956ft 174kts
21-Jul-18 14:49 33.887423 -116.498810 284 12025ft 202kts
21-Jul-18 14:50 33.902570 -116.557918 284 12021ft 219kts
21-Jul-18 14:51 33.920565 -116.628800 284 12020ft 224kts
21-Jul-18 14:52 33.937928 -116.697452 283 12031ft 225kts
21-Jul-18 14:53 33.945665 -116.747559 254 12050ft 218kts
21-Jul-18 14:54 33.931194 -116.818772 252 12027ft 218kts
21-Jul-18 14:55 33.919050 -116.873998 258 12034ft 215kts
21-Jul-18 14:56 33.910068 -116.914877 257 12047ft 213kts
21-Jul-18 14:57 33.899967 -116.960517 258 12035ft 213kts
21-Jul-18 14:58 33.886777 -117.020141 251 11942ft 214kts
21-Jul-18 14:59 33.874528 -117.075008 252 11433ft 206kts
21-Jul-18 15:00 33.861550 -117.133058 255 10851ft 202kts
21-Jul-18 15:01 33.851167 -117.179512 257 10330ft 202kts
21-Jul-18 15:02 33.840678 -117.226394 258 9786ft 205kts
21-Jul-18 15:03 33.830226 -117.273011 257 9362ft 202kts
21-Jul-18 15:04 33.819526 -117.320729 257 8828ft 203kts
21-Jul-18 15:05 33.808307 -117.370447 257 8310ft 200kts
21-Jul-18 15:06 33.802898 -117.394362 258 8056ft 199kts
21-Jul-18 15:07 33.796737 -117.421788 257 7987ft 190kts
21-Jul-18 15:08 33.788528 -117.458033 256 7973ft 204kts
21-Jul-18 15:09 33.780156 -117.500139 272 7970ft 208kts
21-Jul-18 15:10 33.780166 -117.558746 271 7971ft 210kts
21-Jul-18 15:11 33.768528 -117.614252 252 7390ft 211kts
21-Jul-18 15:12 33.752784 -117.666869 252 6723ft 208kts
21-Jul-18 15:13 33.737121 -117.719005 252 5745ft 204kts
21-Jul-18 15:14 33.722736 -117.766436 252 4594ft 174kts
21-Jul-18 15:15 33.709795 -117.808487 252 3965ft 130kts
21-Jul-18 15:16 33.698847 -117.842340 251 3913ft 113kts
21-Jul-18 15:17 33.689046 -117.872160 251 3883ft 112kts
21-Jul-18 15:18 33.678612 -117.904066 252 3900ft 113kts
21-Jul-18 15:19 33.676686 -117.936084 290 3567ft 115kts
21-Jul-18 15:20 33.687498 -117.968776 291 3212ft 114kts
21-Jul-18 15:21 33.698804 -118.003039 291 2915ft 109kts
21-Jul-18 15:22 33.715774 -118.028240 312 2567ft 113kts
21-Jul-18 15:23 33.734086 -118.050253 312 2018ft 95kts
21-Jul-18 15:24 33.750355 -118.069912 312 1439ft 92kts
21-Jul-18 15:25 33.765890 -118.088340 315 1037ft 84kts
21-Jul-18 15:26 33.780511 -118.106210 312 933ft 98kts
21-Jul-18 15:27 33.796852 -118.125817 313 505ft 100kts
21-Jul-18 15:28 33.810794 -118.142806 312 100ft 84kts
21-Jul-18 15:29 33.818466 -118.151322 41 63ft 8kts
21-Jul-18 15:30 33.818552 -118.150587 89 63ft 6kts
21-Jul-18 15:31 33.818624 -118.146966 81 63ft 10kts
21-Jul-18 15:32 33.818642 -118.145954 90 63ft 0kts

Navigation Log

Ident Type
Flight plan parsing failed, navigation log unavailable